GLO2402 SBFZ-SBGO
Flight info
| Callsign | GLO2402 |
|---|---|
| Flight time | 2h 26m |
| Altitude | 38000 |
| Route | DALVO UZ18 VADOP |
| Aircraft | B38M/M-SDE1FGHILORVWXY/HB1 |
Departure
| Time | 2026-04-24 16:41 |
|---|---|
| Airport | Pinto Martins International Airport (SBFZ) |
Arrival
| Time | 2026-04-24 19:07 |
|---|---|
| Airport | Santa Genoveva International Airport (SBGO) |
| Time | Latitude | Longitude | Altitude | Speed | Heading |
|---|---|---|---|---|---|
| 2026-04-24 16:19 | -3.77772 | -38.54056 | 86 ft | 0 kts | 195° |
| 2026-04-24 16:32 | -3.77762 | -38.54053 | 90 ft | 2 kts | 197° |
| 2026-04-24 16:32 | -3.77747 | -38.54048 | 89 ft | 2 kts | 200° |
| 2026-04-24 16:33 | -3.77733 | -38.54043 | 92 ft | 2 kts | 204° |
| 2026-04-24 16:33 | -3.77719 | -38.54037 | 89 ft | 2 kts | 211° |
| 2026-04-24 16:33 | -3.77707 | -38.54028 | 92 ft | 2 kts | 227° |
| 2026-04-24 16:33 | -3.77699 | -38.54016 | 92 ft | 2 kts | 264° |
| 2026-04-24 16:34 | -3.77700 | -38.54005 | 92 ft | 1 kts | 285° |
| 2026-04-24 16:34 | -3.77700 | -38.54004 | 90 ft | 0 kts | 285° |
| 2026-04-24 16:36 | -3.77699 | -38.54008 | 90 ft | 1 kts | 285° |
| 2026-04-24 16:37 | -3.77696 | -38.54019 | 90 ft | 2 kts | 285° |
| 2026-04-24 16:37 | -3.77690 | -38.54040 | 87 ft | 4 kts | 285° |
| 2026-04-24 16:37 | -3.77684 | -38.54060 | 87 ft | 5 kts | 285° |
| 2026-04-24 16:37 | -3.77667 | -38.54131 | 92 ft | 11 kts | 284° |
| 2026-04-24 16:38 | -3.77645 | -38.54215 | 88 ft | 14 kts | 285° |
| 2026-04-24 16:38 | -3.77616 | -38.54322 | 90 ft | 14 kts | 285° |
| 2026-04-24 16:38 | -3.77585 | -38.54377 | 90 ft | 6 kts | 338° |
| 2026-04-24 16:38 | -3.77536 | -38.54388 | 92 ft | 8 kts | 353° |
| 2026-04-24 16:39 | -3.77475 | -38.54410 | 92 ft | 10 kts | 328° |
| 2026-04-24 16:39 | -3.77457 | -38.54452 | 93 ft | 7 kts | 276° |
| 2026-04-24 16:39 | -3.77438 | -38.54503 | 92 ft | 8 kts | 335° |
| 2026-04-24 16:39 | -3.77372 | -38.54502 | 92 ft | 11 kts | 16° |
| 2026-04-24 16:40 | -3.77313 | -38.54473 | 96 ft | 5 kts | 60° |
| 2026-04-24 16:40 | -3.77313 | -38.54440 | 94 ft | 5 kts | 105° |
| 2026-04-24 16:40 | -3.77337 | -38.54356 | 95 ft | 31 kts | 104° |
| 2026-04-24 16:40 | -3.77451 | -38.53927 | 89 ft | 95 kts | 105° |
| 2026-04-24 16:41 | -3.77666 | -38.53115 | 75 ft | 144 kts | 104° |
| 2026-04-24 16:41 | -3.77938 | -38.52042 | 239 ft | 169 kts | 103° |
| 2026-04-24 16:41 | -3.78208 | -38.50871 | 691 ft | 177 kts | 101° |
| 2026-04-24 16:41 | -3.78479 | -38.49616 | 1058 ft | 191 kts | 103° |
| 2026-04-24 16:42 | -3.78797 | -38.48318 | 1735 ft | 192 kts | 105° |
| 2026-04-24 16:42 | -3.79240 | -38.47025 | 2029 ft | 201 kts | 112° |
| 2026-04-24 16:42 | -3.80031 | -38.45850 | 2251 ft | 211 kts | 139° |
| 2026-04-24 16:42 | -3.81421 | -38.45203 | 2587 ft | 233 kts | 170° |
| 2026-04-24 16:43 | -3.83087 | -38.45378 | 3023 ft | 252 kts | 191° |
| 2026-04-24 16:43 | -3.84801 | -38.45878 | 3593 ft | 261 kts | 195° |
| 2026-04-24 16:43 | -3.86564 | -38.46395 | 4231 ft | 267 kts | 193° |
| 2026-04-24 16:43 | -3.88379 | -38.46875 | 4897 ft | 272 kts | 192° |
| 2026-04-24 16:44 | -3.90175 | -38.47338 | 5566 ft | 275 kts | 193° |
| 2026-04-24 16:44 | -3.91507 | -38.47688 | 5796 ft | 281 kts | 193° |
| 2026-04-24 16:44 | -3.93392 | -38.48192 | 5898 ft | 279 kts | 192° |
| 2026-04-24 16:44 | -3.95214 | -38.48799 | 5910 ft | 281 kts | 207° |
| 2026-04-24 16:45 | -3.96691 | -38.50089 | 5935 ft | 286 kts | 235° |
| 2026-04-24 16:45 | -3.97472 | -38.51917 | 6111 ft | 289 kts | 256° |
| 2026-04-24 16:45 | -3.97883 | -38.53889 | 6796 ft | 290 kts | 258° |
| 2026-04-24 16:45 | -3.98249 | -38.55888 | 7463 ft | 294 kts | 259° |
| 2026-04-24 16:46 | -3.98631 | -38.57914 | 8120 ft | 297 kts | 259° |
| 2026-04-24 16:46 | -3.99036 | -38.59963 | 8760 ft | 301 kts | 259° |
| 2026-04-24 16:46 | -3.99314 | -38.61364 | 9194 ft | 305 kts | 258° |
| 2026-04-24 16:46 | -3.99722 | -38.63457 | 9875 ft | 308 kts | 259° |
| 2026-04-24 16:47 | -4.00133 | -38.65582 | 10394 ft | 315 kts | 259° |
| 2026-04-24 16:47 | -4.00559 | -38.67774 | 10770 ft | 327 kts | 258° |
| 2026-04-24 16:47 | -4.01006 | -38.70067 | 11020 ft | 343 kts | 259° |
| 2026-04-24 16:47 | -4.01464 | -38.72417 | 11393 ft | 353 kts | 259° |
| 2026-04-24 16:48 | -4.01938 | -38.74856 | 11859 ft | 359 kts | 259° |
| 2026-04-24 16:48 | -4.02420 | -38.77331 | 12366 ft | 364 kts | 259° |
| 2026-04-24 16:48 | -4.02905 | -38.79834 | 12894 ft | 368 kts | 259° |
| 2026-04-24 16:48 | -4.03399 | -38.82398 | 13431 ft | 372 kts | 259° |
| 2026-04-24 16:49 | -4.03884 | -38.84920 | 13927 ft | 376 kts | 259° |
| 2026-04-24 16:49 | -4.04382 | -38.87497 | 14407 ft | 379 kts | 259° |
| 2026-04-24 16:49 | -4.04885 | -38.90101 | 14865 ft | 382 kts | 259° |
| 2026-04-24 16:49 | -4.05560 | -38.92671 | 15331 ft | 383 kts | 245° |
| 2026-04-24 16:50 | -4.06341 | -38.94299 | 15656 ft | 385 kts | 242° |
| 2026-04-24 16:50 | -4.08000 | -38.97449 | 16294 ft | 388 kts | 241° |
| 2026-04-24 16:50 | -4.09274 | -38.99843 | 16779 ft | 391 kts | 242° |
| 2026-04-24 16:50 | -4.10521 | -39.02271 | 17244 ft | 394 kts | 242° |
| 2026-04-24 16:51 | -4.11771 | -39.04719 | 17691 ft | 396 kts | 242° |
| 2026-04-24 16:51 | -4.13045 | -39.07176 | 18131 ft | 399 kts | 241° |
| 2026-04-24 16:51 | -4.14334 | -39.09647 | 18533 ft | 401 kts | 242° |
| 2026-04-24 16:51 | -4.15624 | -39.12136 | 18870 ft | 405 kts | 241° |
| 2026-04-24 16:52 | -4.16921 | -39.14649 | 19247 ft | 407 kts | 242° |
| 2026-04-24 16:52 | -4.18225 | -39.17171 | 19619 ft | 409 kts | 242° |
| 2026-04-24 16:52 | -4.19541 | -39.19708 | 19988 ft | 412 kts | 242° |
| 2026-04-24 16:52 | -4.20864 | -39.22262 | 20354 ft | 414 kts | 242° |
| 2026-04-24 16:53 | -4.22191 | -39.24828 | 20717 ft | 416 kts | 242° |
| 2026-04-24 16:53 | -4.23527 | -39.27411 | 21073 ft | 419 kts | 242° |
| 2026-04-24 16:53 | -4.24871 | -39.30009 | 21445 ft | 421 kts | 242° |
| 2026-04-24 16:53 | -4.26226 | -39.32625 | 21802 ft | 424 kts | 242° |
| 2026-04-24 16:54 | -4.27586 | -39.35255 | 22140 ft | 427 kts | 242° |
| 2026-04-24 16:54 | -4.28953 | -39.37899 | 22496 ft | 429 kts | 242° |
| 2026-04-24 16:54 | -4.30332 | -39.40563 | 22848 ft | 432 kts | 242° |
| 2026-04-24 16:54 | -4.31717 | -39.43242 | 23182 ft | 434 kts | 242° |
| 2026-04-24 16:55 | -4.33111 | -39.45938 | 23517 ft | 437 kts | 242° |
| 2026-04-24 16:55 | -4.34514 | -39.48649 | 23802 ft | 439 kts | 242° |
| 2026-04-24 16:55 | -4.35942 | -39.51363 | 24091 ft | 441 kts | 238° |
| 2026-04-24 16:55 | -4.37806 | -39.53799 | 24368 ft | 441 kts | 224° |
| 2026-04-24 16:56 | -4.40151 | -39.55775 | 24657 ft | 441 kts | 215° |
| 2026-04-24 16:56 | -4.42626 | -39.57604 | 24945 ft | 443 kts | 214° |
| 2026-04-24 16:56 | -4.45127 | -39.59421 | 25214 ft | 445 kts | 214° |
| 2026-04-24 16:56 | -4.47626 | -39.61260 | 25516 ft | 447 kts | 215° |
| 2026-04-24 16:57 | -4.50128 | -39.63122 | 25822 ft | 449 kts | 215° |
| 2026-04-24 16:57 | -4.52644 | -39.64987 | 26120 ft | 451 kts | 215° |
| 2026-04-24 16:57 | -4.55180 | -39.66853 | 26416 ft | 453 kts | 215° |
| 2026-04-24 16:57 | -4.57723 | -39.68727 | 26708 ft | 455 kts | 215° |
| 2026-04-24 16:58 | -4.60276 | -39.70615 | 27002 ft | 457 kts | 215° |
| 2026-04-24 16:58 | -4.62836 | -39.72510 | 27288 ft | 459 kts | 215° |
| 2026-04-24 16:58 | -4.65409 | -39.74410 | 27573 ft | 461 kts | 215° |
| 2026-04-24 16:58 | -4.67996 | -39.76320 | 27853 ft | 462 kts | 215° |
| 2026-04-24 16:59 | -4.70591 | -39.78238 | 28139 ft | 464 kts | 215° |
| 2026-04-24 16:59 | -4.73195 | -39.80163 | 28436 ft | 466 kts | 215° |
| 2026-04-24 16:59 | -4.78430 | -39.84033 | 28991 ft | 469 kts | 215° |
| 2026-04-24 17:00 | -4.81062 | -39.85978 | 29268 ft | 471 kts | 215° |
| 2026-04-24 17:00 | -4.86356 | -39.89893 | 29828 ft | 475 kts | 215° |
| 2026-04-24 17:00 | -4.89021 | -39.91864 | 30070 ft | 476 kts | 215° |
| 2026-04-24 17:01 | -4.94337 | -39.95796 | 30511 ft | 480 kts | 215° |
| 2026-04-24 17:01 | -4.97030 | -39.97788 | 30735 ft | 482 kts | 215° |
| 2026-04-24 17:02 | -5.02438 | -40.01789 | 31189 ft | 485 kts | 215° |
| 2026-04-24 17:02 | -5.05157 | -40.03801 | 31412 ft | 486 kts | 215° |
| 2026-04-24 17:02 | -5.07882 | -40.05817 | 31633 ft | 488 kts | 215° |
| 2026-04-24 17:02 | -5.10620 | -40.07844 | 31865 ft | 490 kts | 215° |
| 2026-04-24 17:03 | -5.16120 | -40.11915 | 32324 ft | 492 kts | 215° |
| 2026-04-24 17:03 | -5.18871 | -40.13952 | 32651 ft | 492 kts | 215° |
| 2026-04-24 17:03 | -5.21621 | -40.15989 | 32973 ft | 491 kts | 215° |
| 2026-04-24 17:04 | -5.24367 | -40.18022 | 33290 ft | 490 kts | 215° |
| 2026-04-24 17:04 | -5.29852 | -40.22084 | 33953 ft | 489 kts | 215° |
| 2026-04-24 17:04 | -5.32589 | -40.24111 | 34230 ft | 489 kts | 215° |
| 2026-04-24 17:05 | -5.35323 | -40.26137 | 34517 ft | 488 kts | 214° |
| 2026-04-24 17:05 | -5.38051 | -40.28159 | 34795 ft | 488 kts | 214° |
| 2026-04-24 17:05 | -5.43504 | -40.32200 | 35358 ft | 487 kts | 215° |
| 2026-04-24 17:06 | -5.46227 | -40.34218 | 35659 ft | 486 kts | 215° |
| 2026-04-24 17:06 | -5.51653 | -40.38240 | 36231 ft | 484 kts | 215° |
| 2026-04-24 17:06 | -5.54360 | -40.40247 | 36526 ft | 483 kts | 215° |
| 2026-04-24 17:07 | -5.56147 | -40.41572 | 36725 ft | 482 kts | 215° |
| 2026-04-24 17:07 | -5.59753 | -40.44247 | 37122 ft | 481 kts | 215° |
| 2026-04-24 17:07 | -5.65116 | -40.48224 | 37701 ft | 478 kts | 215° |
| 2026-04-24 17:08 | -5.70432 | -40.52170 | 37923 ft | 469 kts | 215° |
| 2026-04-24 17:08 | -5.75638 | -40.56032 | 37915 ft | 463 kts | 215° |
| 2026-04-24 17:09 | -5.85934 | -40.63676 | 37918 ft | 459 kts | 215° |
| 2026-04-24 17:10 | -5.96180 | -40.71295 | 37935 ft | 458 kts | 215° |
| 2026-04-24 17:12 | -6.16629 | -40.86509 | 37939 ft | 458 kts | 215° |
| 2026-04-24 18:54 | -16.55371 | -48.66109 | 20270 ft | 433 kts | 252° |
| 2026-04-24 18:55 | -16.56788 | -48.72156 | 19136 ft | 426 kts | 258° |
| 2026-04-24 18:55 | -16.57422 | -48.75118 | 18581 ft | 423 kts | 256° |
| 2026-04-24 18:55 | -16.58149 | -48.78075 | 17991 ft | 420 kts | 255° |
| 2026-04-24 18:56 | -16.58875 | -48.81006 | 17433 ft | 415 kts | 256° |
| 2026-04-24 18:56 | -16.59544 | -48.83908 | 16885 ft | 410 kts | 257° |
| 2026-04-24 18:56 | -16.60194 | -48.86783 | 16355 ft | 405 kts | 257° |
| 2026-04-24 18:56 | -16.60858 | -48.89618 | 15827 ft | 401 kts | 256° |
| 2026-04-24 18:57 | -16.61524 | -48.92424 | 15312 ft | 397 kts | 256° |
| 2026-04-24 18:57 | -16.62175 | -48.95204 | 14867 ft | 391 kts | 256° |
| 2026-04-24 18:57 | -16.62809 | -48.97946 | 14370 ft | 387 kts | 256° |
| 2026-04-24 18:57 | -16.63112 | -49.00727 | 13704 ft | 388 kts | 276° |
| 2026-04-24 18:58 | -16.62329 | -49.03324 | 13194 ft | 359 kts | 298° |
| 2026-04-24 18:58 | -16.61099 | -49.05451 | 12694 ft | 327 kts | 303° |
| 2026-04-24 18:58 | -16.59874 | -49.07339 | 12279 ft | 302 kts | 303° |
| 2026-04-24 18:58 | -16.58800 | -49.09149 | 11965 ft | 288 kts | 300° |
| 2026-04-24 18:59 | -16.57804 | -49.10999 | 11594 ft | 295 kts | 299° |
| 2026-04-24 18:59 | -16.56795 | -49.12847 | 11199 ft | 291 kts | 300° |
| 2026-04-24 18:59 | -16.55766 | -49.14663 | 10819 ft | 290 kts | 301° |
| 2026-04-24 18:59 | -16.54744 | -49.16463 | 10423 ft | 288 kts | 300° |
| 2026-04-24 19:00 | -16.53758 | -49.18221 | 10046 ft | 272 kts | 300° |
| 2026-04-24 19:00 | -16.52834 | -49.19872 | 9677 ft | 261 kts | 300° |
| 2026-04-24 19:00 | -16.51915 | -49.21507 | 9323 ft | 261 kts | 300° |
| 2026-04-24 19:00 | -16.51001 | -49.23134 | 8973 ft | 259 kts | 300° |
| 2026-04-24 19:01 | -16.50093 | -49.24749 | 8629 ft | 258 kts | 300° |
| 2026-04-24 19:01 | -16.49189 | -49.26356 | 8281 ft | 257 kts | 300° |
| 2026-04-24 19:01 | -16.48286 | -49.27960 | 7937 ft | 256 kts | 300° |
| 2026-04-24 19:01 | -16.47390 | -49.29553 | 7591 ft | 255 kts | 300° |
| 2026-04-24 19:02 | -16.46809 | -49.30613 | 7341 ft | 254 kts | 296° |
| 2026-04-24 19:02 | -16.46665 | -49.32955 | 6884 ft | 251 kts | 246° |
| 2026-04-24 19:02 | -16.47746 | -49.34330 | 6621 ft | 247 kts | 214° |
| 2026-04-24 19:02 | -16.49190 | -49.35184 | 6346 ft | 232 kts | 206° |
| 2026-04-24 19:03 | -16.50586 | -49.35932 | 6092 ft | 220 kts | 207° |
| 2026-04-24 19:03 | -16.51891 | -49.36706 | 5835 ft | 212 kts | 208° |
| 2026-04-24 19:03 | -16.53229 | -49.37311 | 5566 ft | 210 kts | 185° |
| 2026-04-24 19:03 | -16.54613 | -49.36958 | 5331 ft | 208 kts | 145° |
| 2026-04-24 19:04 | -16.55536 | -49.35821 | 5106 ft | 205 kts | 123° |
| 2026-04-24 19:04 | -16.56248 | -49.34529 | 4859 ft | 207 kts | 119° |
| 2026-04-24 19:04 | -16.56956 | -49.33222 | 4606 ft | 206 kts | 121° |
| 2026-04-24 19:04 | -16.57663 | -49.31959 | 4372 ft | 205 kts | 121° |
| 2026-04-24 19:05 | -16.58366 | -49.30712 | 4129 ft | 188 kts | 122° |
| 2026-04-24 19:05 | -16.59002 | -49.29581 | 3894 ft | 177 kts | 121° |
| 2026-04-24 19:05 | -16.59633 | -49.28459 | 3653 ft | 177 kts | 121° |
| 2026-04-24 19:05 | -16.60235 | -49.27389 | 3424 ft | 167 kts | 121° |
| 2026-04-24 19:06 | -16.60629 | -49.26690 | 3291 ft | 170 kts | 121° |
| 2026-04-24 19:06 | -16.61215 | -49.25643 | 3017 ft | 157 kts | 120° |
| 2026-04-24 19:06 | -16.61735 | -49.24719 | 2803 ft | 144 kts | 120° |
| 2026-04-24 19:06 | -16.62397 | -49.23537 | 2550 ft | 142 kts | 120° |
| 2026-04-24 19:07 | -16.62881 | -49.22678 | 2430 ft | 123 kts | 121° |
| 2026-04-24 19:07 | -16.63121 | -49.22242 | 2431 ft | 82 kts | 120° |
| 2026-04-24 19:07 | -16.63313 | -49.21904 | 2432 ft | 31 kts | 120° |
| 2026-04-24 19:07 | -16.63410 | -49.21731 | 2436 ft | 25 kts | 120° |
| 2026-04-24 19:08 | -16.63466 | -49.21580 | 2437 ft | 21 kts | 100° |
| 2026-04-24 19:08 | -16.63469 | -49.21441 | 2439 ft | 18 kts | 84° |
| 2026-04-24 19:08 | -16.63423 | -49.21390 | 2438 ft | 6 kts | 356° |
| 2026-04-24 19:08 | -16.63397 | -49.21414 | 2437 ft | 5 kts | 311° |
| 2026-04-24 19:09 | -16.63380 | -49.21449 | 2437 ft | 6 kts | 297° |
| 2026-04-24 19:09 | -16.63357 | -49.21490 | 2436 ft | 7 kts | 302° |
| 2026-04-24 19:09 | -16.63328 | -49.21540 | 2433 ft | 9 kts | 300° |
| 2026-04-24 19:09 | -16.63291 | -49.21607 | 2433 ft | 12 kts | 300° |
| 2026-04-24 19:10 | -16.63243 | -49.21690 | 2433 ft | 15 kts | 301° |
| 2026-04-24 19:10 | -16.63186 | -49.21790 | 2434 ft | 17 kts | 300° |
| 2026-04-24 19:10 | -16.63123 | -49.21905 | 2434 ft | 19 kts | 300° |
| 2026-04-24 19:10 | -16.63054 | -49.22023 | 2432 ft | 13 kts | 313° |
| 2026-04-24 19:11 | -16.62990 | -49.22001 | 2431 ft | 11 kts | 61° |
| 2026-04-24 19:11 | -16.62970 | -49.21919 | 2430 ft | 13 kts | 77° |
| 2026-04-24 19:11 | -16.62951 | -49.21825 | 2434 ft | 14 kts | 78° |
| 2026-04-24 19:11 | -16.62930 | -49.21722 | 2431 ft | 15 kts | 78° |
| 2026-04-24 19:12 | -16.62925 | -49.21642 | 2434 ft | 5 kts | 122° |
| 2026-04-24 19:12 | -16.62955 | -49.21623 | 2432 ft | 6 kts | 156° |
| 2026-04-24 19:12 | -16.62995 | -49.21602 | 2434 ft | 5 kts | 144° |
| 2026-04-24 19:12 | -16.63001 | -49.21586 | 2433 ft | 4 kts | 92° |
| 2026-04-24 19:13 | -16.62990 | -49.21559 | 2434 ft | 9 kts | 61° |
| 2026-04-24 19:13 | -16.62976 | -49.21531 | 2435 ft | 0 kts | 63° |